Time;durP1;ratioP1;P1;durP2;ratioP2;P2;SDS_P1;SDS_P2;PMS_P1;PMS_P2;Temp;Humidity;BMP_temperature;BMP_pressure;BME280_temperature;BME280_humidity;BME280_pressure;Samples;Min_cycle;Max_cycle;Signal;HPM_P1;HPM_P2
2023/03/09 00:01:43;;;;;;;8.23;4.47;;;;;;;7.50;nan;-24026.56;5029175;28;20278;-75
2023/03/09 00:04:31;;;;;;;6.93;4.40;;;;;;;7.50;nan;-24026.41;5016027;28;20184;-76
2023/03/09 00:06:57;;;;;;;9.17;4.03;;;;;;;7.55;nan;-24027.84;5014506;28;20176;-76
2023/03/09 00:09:26;;;;;;;7.87;4.53;;;;;;;7.60;nan;-24029.09;5014508;28;20199;-76
2023/03/09 00:11:52;;;;;;;6.90;4.40;;;;;;;7.66;nan;-24030.94;5013483;28;20301;-77
2023/03/09 00:14:21;;;;;;;8.07;4.60;;;;;;;7.68;nan;-24031.53;5012727;28;20176;-74
2023/03/09 00:16:46;;;;;;;4.87;3.57;;;;;;;7.71;nan;-24032.38;5012375;28;20583;-76
2023/03/09 00:19:12;;;;;;;7.07;4.33;;;;;;;7.59;nan;-24028.97;5013446;28;20191;-74
2023/03/09 00:21:39;;;;;;;5.73;3.77;;;;;;;7.34;nan;-24022.03;5012490;28;20257;-73
2023/03/09 00:24:18;;;;;;;9.90;3.63;;;;;;;7.49;nan;-24026.28;5013720;28;20176;-74
2023/03/09 00:26:49;;;;;;;5.53;3.83;;;;;;;7.16;nan;-24016.78;5028858;28;20362;-75
2023/03/09 00:29:15;;;;;;;5.97;4.33;;;;;;;7.34;nan;-24021.88;5029143;28;20164;-73
2023/03/09 00:31:42;;;;;;;5.77;3.67;;;;;;;7.30;nan;-24020.88;5013359;28;20206;-73
2023/03/09 00:34:08;;;;;;;6.57;3.73;;;;;;;7.40;nan;-24023.59;5013095;28;20171;-76
2023/03/09 00:36:33;;;;;;;6.37;4.00;;;;;;;7.17;nan;-24017.19;5013420;28;20556;-76
2023/03/09 00:39:00;;;;;;;6.33;2.90;;;;;;;7.40;nan;-24023.59;5029571;28;20184;-75
2023/03/09 00:41:28;;;;;;;6.00;3.17;;;;;;;7.02;nan;-24013.09;5018311;28;20186;-74
2023/03/09 00:43:54;;;;;;;8.73;3.80;;;;;;;7.19;nan;-24017.78;5013031;28;20650;-76
2023/03/09 00:46:20;;;;;;;7.10;4.40;;;;;;;7.29;nan;-24020.47;5014341;28;20191;-76
2023/03/09 00:48:45;;;;;;;6.13;2.97;;;;;;;7.26;nan;-24019.75;5013511;28;20650;-74
2023/03/09 00:51:11;;;;;;;5.77;3.30;;;;;;;7.01;nan;-24012.81;5021136;28;20176;-76
2023/03/09 00:53:37;;;;;;;4.67;3.00;;;;;;;7.37;nan;-24022.72;5020559;28;20176;-73
2023/03/09 00:56:06;;;;;;;4.97;3.10;;;;;;;7.22;nan;-24018.63;5021314;28;20228;-75
2023/03/09 00:58:32;;;;;;;6.03;3.20;;;;;;;7.01;nan;-24012.81;5020821;28;20206;-74
2023/03/09 01:00:57;;;;;;;4.23;2.67;;;;;;;7.35;nan;-24022.16;5014976;28;20176;-73
2023/03/09 01:03:23;;;;;;;4.23;2.87;;;;;;;7.10;nan;-24015.34;5012499;28;20214;-76
2023/03/09 01:05:49;;;;;;;4.87;2.97;;;;;;;7.34;nan;-24022.03;5012586;28;20180;-75
2023/03/09 01:08:14;;;;;;;7.63;3.27;;;;;;;7.25;nan;-24019.34;5011404;28;20711;-77
2023/03/09 01:10:41;;;;;;;2.90;2.63;;;;;;;7.18;nan;-24017.34;5011291;28;20183;-72
2023/03/09 01:13:07;;;;;;;5.17;2.83;;;;;;;7.11;nan;-24015.50;5011649;28;20552;-76
2023/03/09 01:15:32;;;;;;;5.43;3.07;;;;;;;7.38;nan;-24023.16;5024941;28;20198;-74
2023/03/09 01:17:58;;;;;;;5.13;3.23;;;;;;;7.28;nan;-24020.19;5030521;28;20233;-77
2023/03/09 01:20:23;;;;;;;4.63;3.03;;;;;;;7.28;nan;-24020.19;5031758;28;20617;-75
2023/03/09 01:22:49;;;;;;;4.23;3.03;;;;;;;7.10;nan;-24015.22;5030391;28;20557;-75
2023/03/09 01:25:14;;;;;;;3.43;2.80;;;;;;;7.03;nan;-24013.22;5032209;28;20261;-73
2023/03/09 01:27:39;;;;;;;3.57;2.43;;;;;;;7.55;nan;-24027.97;5031726;28;20259;-73
2023/03/09 01:30:06;;;;;;;3.47;2.27;;;;;;;7.50;nan;-24026.41;5031528;28;20183;-75
2023/03/09 01:32:31;;;;;;;3.80;2.57;;;;;;;7.60;nan;-24029.09;5031568;28;20234;-76
2023/03/09 01:34:57;;;;;;;4.40;2.60;;;;;;;7.70;nan;-24032.09;5031424;28;20662;-74
2023/03/09 01:37:23;;;;;;;4.57;3.03;;;;;;;7.70;nan;-24032.09;5030683;28;20179;-78
2023/03/09 01:39:49;;;;;;;3.53;2.47;;;;;;;7.32;nan;-24021.31;5031381;28;20178;-73
2023/03/09 01:42:14;;;;;;;3.50;2.73;;;;;;;7.32;nan;-24021.31;5030297;28;20571;-74
2023/03/09 01:44:40;;;;;;;3.17;2.40;;;;;;;7.23;nan;-24018.75;5036211;28;20606;-76
2023/03/09 01:47:06;;;;;;;4.37;2.13;;;;;;;7.05;nan;-24013.94;5031457;28;20175;-75
2023/03/09 01:49:40;;;;;;;4.80;2.70;;;;;;;7.49;nan;-24026.13;5031808;28;20171;-75
2023/03/09 01:52:12;;;;;;;3.23;2.33;;;;;;;7.41;nan;-24023.88;5032276;28;20178;-73
2023/03/09 01:54:47;;;;;;;3.73;2.90;;;;;;;7.37;nan;-24022.88;5031546;28;20171;-74
2023/03/09 01:57:24;;;;;;;4.10;2.10;;;;;;;7.27;nan;-24019.91;5030435;28;20728;-76
2023/03/09 01:59:52;;;;;;;2.03;1.93;;;;;;;7.06;nan;-24014.09;5030456;28;20183;-73
2023/03/09 02:02:20;;;;;;;4.17;2.90;;;;;;;7.31;nan;-24021.03;5030441;28;20224;-73
2023/03/09 02:04:52;;;;;;;4.37;2.60;;;;;;;7.27;nan;-24019.91;5030386;28;20168;-76
2023/03/09 02:07:21;;;;;;;4.33;2.67;;;;;;;7.35;nan;-24022.16;5031419;28;20171;-75
2023/03/09 02:10:04;;;;;;;2.70;2.07;;;;;;;7.41;nan;-24024.00;5031632;28;20202;-76
2023/03/09 02:12:30;;;;;;;2.10;1.90;;;;;;;7.36;nan;-24022.44;5031441;28;20525;-76
2023/03/09 02:14:56;;;;;;;2.30;2.10;;;;;;;7.37;nan;-24022.88;5031669;28;20183;-77
2023/03/09 02:17:22;;;;;;;2.67;2.13;;;;;;;7.26;nan;-24019.75;5047190;28;20187;-75
2023/03/09 02:19:54;;;;;;;2.73;2.03;;;;;;;7.60;nan;-24029.25;5035381;28;20187;-74
2023/03/09 02:22:20;;;;;;;1.97;1.70;;;;;;;7.36;nan;-24022.44;5035464;28;20661;-74
2023/03/09 02:25:05;;;;;;;2.33;2.03;;;;;;;7.69;nan;-24031.81;5034064;28;20274;-72
2023/03/09 02:27:31;;;;;;;2.03;1.73;;;;;;;7.75;nan;-24033.38;5035071;28;20178;-73
2023/03/09 02:29:58;;;;;;;2.57;1.97;;;;;;;7.94;nan;-24038.88;5033830;28;20533;-74
2023/03/09 02:32:23;;;;;;;2.47;1.90;;;;;;;7.85;nan;-24036.34;5035286;28;20268;-75
2023/03/09 02:34:49;;;;;;;2.20;1.87;;;;;;;7.38;nan;-24023.00;5035020;28;20270;-74
2023/03/09 02:37:27;;;;;;;2.10;1.70;;;;;;;7.75;nan;-24033.50;5034878;28;20546;-75
2023/03/09 02:39:56;;;;;;;2.23;2.03;;;;;;;7.50;nan;-24026.41;5050097;28;20238;-74
2023/03/09 02:42:23;;;;;;;1.80;1.70;;;;;;;7.68;nan;-24031.38;5035394;28;20606;-75
2023/03/09 02:44:49;;;;;;;1.90;1.80;;;;;;;7.74;nan;-24033.06;5034783;28;20221;-73
2023/03/09 02:47:22;;;;;;;2.13;1.73;;;;;;;7.62;nan;-24029.69;5037994;28;20175;-73
2023/03/09 02:49:47;;;;;;;3.10;2.73;;;;;;;7.79;nan;-24034.63;5035060;28;20175;-76
2023/03/09 02:52:13;;;;;;;2.33;2.03;;;;;;;7.67;nan;-24031.25;5034518;28;20237;-73
2023/03/09 02:54:39;;;;;;;3.10;2.40;;;;;;;7.34;nan;-24021.88;5035162;28;20345;-75
2023/03/09 02:57:05;;;;;;;2.80;2.03;;;;;;;7.55;nan;-24027.84;5034706;28;20341;-74
2023/03/09 02:59:30;;;;;;;2.37;1.80;;;;;;;7.51;nan;-24026.69;5034757;28;20620;-74
2023/03/09 03:01:56;;;;;;;1.97;1.80;;;;;;;7.53;nan;-24027.28;5034475;28;20685;-73
2023/03/09 03:04:22;;;;;;;1.87;1.63;;;;;;;7.12;nan;-24015.66;5034583;28;20175;-73
2023/03/09 03:06:47;;;;;;;4.60;2.30;;;;;;;7.15;nan;-24016.50;5033175;28;20175;-73
2023/03/09 03:09:12;;;;;;;2.83;2.10;;;;;;;7.06;nan;-24014.22;5034064;28;20176;-75
2023/03/09 03:11:38;;;;;;;3.30;2.53;;;;;;;7.26;nan;-24019.75;5049191;28;20175;-74
2023/03/09 03:14:03;;;;;;;6.33;3.10;;;;;;;7.53;nan;-24027.28;5034183;28;20210;-73
2023/03/09 03:16:28;;;;;;;7.17;2.87;;;;;;;7.37;nan;-24022.72;5034003;28;20179;-75
2023/03/09 03:18:54;;;;;;;4.73;2.30;;;;;;;7.18;nan;-24017.34;5026315;28;20597;-76
2023/03/09 03:21:19;;;;;;;3.97;2.37;;;;;;;7.08;nan;-24014.78;5014310;28;20246;-78
2023/03/09 03:23:45;;;;;;;3.87;2.60;;;;;;;7.10;nan;-24015.34;5013139;28;20303;-75
2023/03/09 03:26:11;;;;;;;2.77;2.07;;;;;;;7.35;nan;-24022.31;5013003;28;20291;-76
2023/03/09 03:28:37;;;;;;;4.67;2.83;;;;;;;7.08;nan;-24014.78;5012635;28;20682;-73
2023/03/09 03:31:03;;;;;;;4.30;2.70;;;;;;;7.34;nan;-24021.88;5013855;28;20180;-72
2023/03/09 03:33:29;;;;;;;4.03;2.80;;;;;;;7.20;nan;-24017.91;5014111;28;20180;-74
2023/03/09 03:35:55;;;;;;;8.50;2.83;;;;;;;7.18;nan;-24017.34;5014076;28;20581;-73
2023/03/09 03:38:21;;;;;;;4.60;2.70;;;;;;;7.23;nan;-24018.75;5013888;28;20203;-74
2023/03/09 03:40:47;;;;;;;3.00;2.70;;;;;;;6.91;nan;-24009.97;5029336;28;20172;-77
2023/03/09 03:43:12;;;;;;;3.97;3.07;;;;;;;6.92;nan;-24010.25;5013485;28;20217;-76
2023/03/09 03:45:38;;;;;;;6.33;2.80;;;;;;;7.22;nan;-24018.63;5014165;28;20259;-75
2023/03/09 03:48:03;;;;;;;7.47;2.43;;;;;;;7.10;nan;-24015.22;5014946;28;20172;-75
2023/03/09 03:50:29;;;;;;;3.07;2.33;;;;;;;7.01;nan;-24012.66;5030656;28;20192;-77
2023/03/09 03:52:54;;;;;;;4.40;2.63;;;;;;;6.94;nan;-24010.81;5029147;28;20176;-76
2023/03/09 03:55:19;;;;;;;4.00;2.23;;;;;;;6.83;nan;-24007.69;5028742;28;20293;-71
2023/03/09 03:57:45;;;;;;;4.10;2.57;;;;;;;6.87;nan;-24008.84;5012423;28;20562;-74
2023/03/09 04:00:11;;;;;;;3.70;2.20;;;;;;;6.72;nan;-24004.56;5013615;28;20168;-76
2023/03/09 04:02:37;;;;;;;4.57;2.67;;;;;;;6.39;nan;-23995.34;5013954;28;20262;-75
2023/03/09 04:05:03;;;;;;;2.20;1.80;;;;;;;6.79;nan;-24006.56;5013644;28;20176;-76
2023/03/09 04:07:29;;;;;;;5.67;2.80;;;;;;;6.88;nan;-24008.97;5013661;28;20251;-75
2023/03/09 04:09:54;;;;;;;4.87;2.43;;;;;;;6.96;nan;-24011.25;5028272;28;20178;-75
2023/03/09 04:12:20;;;;;;;5.67;2.30;;;;;;;6.65;nan;-24002.59;5013427;28;20172;-71
2023/03/09 04:14:45;;;;;;;4.03;2.50;;;;;;;6.97;nan;-24011.53;5013511;28;20179;-75
2023/03/09 04:17:11;;;;;;;2.83;2.43;;;;;;;6.92;nan;-24010.13;5012027;28;20187;-75
2023/03/09 04:19:36;;;;;;;2.93;2.43;;;;;;;6.47;nan;-23997.47;5013389;28;20196;-76
2023/03/09 04:22:03;;;;;;;3.87;2.73;;;;;;;6.84;nan;-24008.00;5010959;28;20805;-74
2023/03/09 04:24:29;;;;;;;2.37;1.93;;;;;;;6.87;nan;-24008.84;4998677;28;20287;-75
2023/03/09 04:26:54;;;;;;;3.47;2.80;;;;;;;6.90;nan;-24009.69;4998052;28;20627;-73
2023/03/09 04:29:20;;;;;;;3.67;2.33;;;;;;;6.99;nan;-24012.09;5013768;28;20791;-74
2023/03/09 04:31:46;;;;;;;2.90;2.30;;;;;;;6.64;nan;-24002.31;4997340;28;20299;-74
2023/03/09 04:34:11;;;;;;;4.03;2.93;;;;;;;7.12;nan;-24015.66;4997979;28;20234;-73
2023/03/09 04:36:37;;;;;;;4.33;2.80;;;;;;;6.72;nan;-24004.44;4998599;28;20196;-74
2023/03/09 04:39:04;;;;;;;3.93;2.80;;;;;;;6.66;nan;-24002.88;4999673;28;20212;-78
2023/03/09 04:41:30;;;;;;;3.10;2.13;;;;;;;6.58;nan;-24000.59;4998477;28;20286;-73
2023/03/09 04:43:56;;;;;;;3.03;2.03;;;;;;;6.57;nan;-24000.47;4997753;28;20183;-74
2023/03/09 04:46:22;;;;;;;4.23;2.70;;;;;;;6.81;nan;-24007.00;4997862;28;20184;-76
2023/03/09 04:48:47;;;;;;;3.27;2.73;;;;;;;6.88;nan;-24009.13;4998354;28;20187;-73
2023/03/09 04:51:13;;;;;;;2.97;2.30;;;;;;;6.92;nan;-24010.25;5002643;28;20232;-76
2023/03/09 04:53:38;;;;;;;2.30;2.10;;;;;;;6.68;nan;-24003.44;5003649;28;20184;-72
2023/03/09 04:56:13;;;;;;;3.17;2.60;;;;;;;6.70;nan;-24003.88;5003617;28;20762;-72
2023/03/09 04:58:38;;;;;;;2.53;2.27;;;;;;;6.91;nan;-24009.97;5002067;28;20188;-76
2023/03/09 05:01:04;;;;;;;3.70;2.60;;;;;;;6.82;nan;-24007.28;5018961;28;20196;-74
2023/03/09 05:03:29;;;;;;;4.10;2.67;;;;;;;7.03;nan;-24013.22;5003005;28;20282;-72
2023/03/09 05:05:55;;;;;;;3.43;2.50;;;;;;;7.06;nan;-24014.22;5001119;28;20639;-75
2023/03/09 05:08:21;;;;;;;3.63;2.63;;;;;;;6.99;nan;-24012.09;4999030;28;20187;-75
2023/03/09 05:10:46;;;;;;;2.77;2.50;;;;;;;7.12;nan;-24015.66;4998557;28;20176;-76
2023/03/09 05:13:12;;;;;;;4.30;2.33;;;;;;;7.11;nan;-24015.50;4995986;28;20192;-75
2023/03/09 05:15:39;;;;;;;2.90;2.30;;;;;;;6.87;nan;-24008.69;4997701;28;20557;-74
2023/03/09 05:18:05;;;;;;;3.40;2.30;;;;;;;6.95;nan;-24011.09;4996606;28;20553;-79
2023/03/09 05:20:31;;;;;;;2.67;2.37;;;;;;;6.53;nan;-23999.19;4998428;28;20188;-77
2023/03/09 05:22:57;;;;;;;3.63;2.53;;;;;;;7.22;nan;-24018.63;5003581;28;20204;-73
2023/03/09 05:25:22;;;;;;;3.20;2.67;;;;;;;7.25;nan;-24019.34;4998603;28;20648;-73
2023/03/09 05:27:48;;;;;;;3.63;2.50;;;;;;;7.48;nan;-24025.84;5006896;28;20271;-75
2023/03/09 05:30:13;;;;;;;2.40;2.20;;;;;;;7.43;nan;-24024.56;5027138;28;20659;-74
2023/03/09 05:32:39;;;;;;;2.77;2.13;;;;;;;7.51;nan;-24026.84;5009458;28;20343;-73
2023/03/09 05:35:05;;;;;;;3.83;2.37;;;;;;;7.77;nan;-24033.94;5012776;28;20274;-76
2023/03/09 05:37:32;;;;;;;5.27;3.37;;;;;;;7.61;nan;-24029.53;5010516;28;20223;-75
2023/03/09 05:39:57;;;;;;;3.17;2.70;;;;;;;7.93;nan;-24038.47;5012431;28;20175;-73
2023/03/09 05:42:23;;;;;;;6.00;2.83;;;;;;;8.16;nan;-24044.84;5027872;28;20215;-76
2023/03/09 05:44:49;;;;;;;10.40;5.77;;;;;;;7.98;nan;-24040.03;5012213;28;20192;-73
2023/03/09 05:47:14;;;;;;;16.23;6.27;;;;;;;7.08;nan;-24014.78;5010741;28;20211;-72
2023/03/09 05:49:40;;;;;;;8.73;4.77;;;;;;;7.78;nan;-24034.34;5012777;28;20215;-75
2023/03/09 05:52:05;;;;;;;11.23;4.80;;;;;;;8.05;nan;-24041.84;5013642;28;20263;-74
2023/03/09 05:54:31;;;;;;;15.87;5.87;;;;;;;8.28;nan;-24048.22;5018755;28;20183;-73
2023/03/09 05:56:56;;;;;;;16.63;4.90;;;;;;;8.53;nan;-24055.31;5016761;28;20670;-74
2023/03/09 05:59:22;;;;;;;12.67;5.33;;;;;;;8.92;nan;-24066.06;5017441;28;20179;-75
2023/03/09 06:01:52;;;;;;;8.27;4.50;;;;;;;9.13;nan;-24072.00;5016837;28;20631;-76
2023/03/09 06:04:19;;;;;;;19.40;4.37;;;;;;;9.12;nan;-24071.72;5050121;28;20184;-78
2023/03/09 06:06:44;;;;;;;8.33;4.60;;;;;;;9.36;nan;-24078.50;5016778;28;20648;-73
2023/03/09 06:09:10;;;;;;;9.13;4.67;;;;;;;9.43;nan;-24080.50;5016509;28;20214;-72
2023/03/09 06:11:35;;;;;;;8.60;4.80;;;;;;;9.87;nan;-24092.78;5048632;28;20245;-74
2023/03/09 06:14:01;;;;;;;8.05;3.85;;;;;;;9.87;nan;-24092.63;5015912;28;20607;-74
2023/03/09 06:16:26;;;;;;;7.70;4.25;;;;;;;10.07;nan;-24098.28;5015826;28;20585;-74
2023/03/09 06:18:55;;;;;;;6.03;3.67;;;;;;;10.60;nan;-24113.13;5015620;28;20616;-75
2023/03/09 06:21:20;;;;;;;6.40;4.00;;;;;;;10.44;nan;-24108.59;5014637;28;20187;-72
2023/03/09 06:23:46;;;;;;;6.70;4.37;;;;;;;10.88;nan;-24120.88;5014811;28;20195;-74
2023/03/09 06:26:12;;;;;;;6.88;4.38;;;;;;;11.03;nan;-24125.25;5015055;28;20187;-73
2023/03/09 06:28:38;;;;;;;8.45;3.72;;;;;;;11.05;nan;-24125.81;5014476;28;20194;-74
2023/03/09 06:31:13;;;;;;;7.18;3.92;;;;;;;10.90;nan;-24121.56;5013504;28;20179;-74
2023/03/09 06:33:39;;;;;;;10.75;4.38;;;;;;;11.20;nan;-24129.88;5013597;28;20293;-76
2023/03/09 06:36:05;;;;;;;7.68;4.18;;;;;;;11.37;nan;-24134.69;5013611;28;20571;-73
2023/03/09 06:38:31;;;;;;;7.40;4.50;;;;;;;11.19;nan;-24129.47;5014937;28;20190;-77
2023/03/09 06:40:57;;;;;;;7.50;4.28;;;;;;;11.74;nan;-24144.97;5014841;28;20298;-77
2023/03/09 06:43:22;;;;;;;9.88;4.18;;;;;;;11.90;nan;-24149.47;5013666;28;20238;-76
2023/03/09 06:45:48;;;;;;;5.03;3.10;;;;;;;12.12;nan;-24155.53;5014324;28;20180;-77
2023/03/09 06:48:14;;;;;;;6.38;4.15;;;;;;;11.95;nan;-24150.88;5014762;28;20182;-76
2023/03/09 06:50:39;;;;;;;4.82;2.90;;;;;;;12.63;nan;-24169.59;5013204;28;20374;-77
2023/03/09 06:53:05;;;;;;;4.70;3.13;;;;;;;12.65;nan;-24170.16;5013426;28;20191;-76
2023/03/09 06:55:30;;;;;;;4.95;3.08;;;;;;;12.92;nan;-24177.63;5016188;28;20235;-76
2023/03/09 06:57:56;;;;;;;5.53;3.40;;;;;;;12.68;nan;-24171.00;5013882;28;20188;-76
2023/03/09 07:00:21;;;;;;;4.20;2.80;;;;;;;13.03;nan;-24180.84;5014814;28;20179;-76
2023/03/09 07:02:47;;;;;;;5.05;2.70;;;;;;;12.79;nan;-24174.25;5013024;28;20211;-74
2023/03/09 07:05:13;;;;;;;5.57;3.10;;;;;;;13.04;nan;-24181.00;5013197;28;20168;-73
2023/03/09 07:07:41;;;;;;;4.53;2.30;;;;;;;13.22;nan;-24186.19;5012729;28;20184;-78
2023/03/09 07:10:07;;;;;;;3.80;2.70;;;;;;;13.08;nan;-24182.13;5013376;28;20588;-77
2023/03/09 07:12:32;;;;;;;4.32;2.95;;;;;;;12.91;nan;-24177.47;5012474;28;20180;-67
2023/03/09 07:14:57;;;;;;;10.45;2.60;;;;;;;12.95;nan;-24178.47;5014044;28;20187;-69
2023/03/09 07:17:23;;;;;;;6.47;3.35;;;;;;;12.93;nan;-24178.03;5012617;28;20242;-68
2023/03/09 07:19:48;;;;;;;4.32;2.85;;;;;;;13.24;nan;-24186.63;5013613;28;20203;-70
2023/03/09 07:22:14;;;;;;;5.45;3.20;;;;;;;13.23;nan;-24186.34;5014018;28;20196;-69
2023/03/09 07:24:39;;;;;;;9.60;3.97;;;;;;;13.56;nan;-24195.47;5014302;28;20743;-69
2023/03/09 07:27:07;;;;;;;7.78;4.30;;;;;;;13.75;nan;-24200.81;5013768;28;20179;-71
2023/03/09 07:29:32;;;;;;;5.60;3.80;;;;;;;13.64;nan;-24197.84;5014247;28;20182;-69
2023/03/09 07:31:58;;;;;;;6.47;3.78;;;;;;;13.09;nan;-24182.53;5014481;28;20549;-70
2023/03/09 07:34:24;;;;;;;8.45;3.30;;;;;;;12.92;nan;-24177.75;5013501;28;20176;-69
2023/03/09 07:36:50;;;;;;;5.88;3.20;;;;;;;12.89;nan;-24176.91;5013708;28;20405;-70
2023/03/09 07:39:15;;;;;;;4.88;3.35;;;;;;;12.61;nan;-24169.19;5013390;28;20262;-71
2023/03/09 07:41:42;;;;;;;5.80;3.15;;;;;;;12.63;nan;-24169.59;5013225;28;20168;-70
2023/03/09 07:44:07;;;;;;;5.13;3.10;;;;;;;13.42;nan;-24191.66;5013204;28;20176;-70
2023/03/09 07:46:33;;;;;;;5.28;3.05;;;;;;;13.13;nan;-24183.66;5013248;28;20165;-71
2023/03/09 07:48:58;;;;;;;4.72;2.80;;;;;;;13.48;nan;-24193.22;5012734;28;20596;-69
2023/03/09 07:51:23;;;;;;;3.25;2.53;;;;;;;13.43;nan;-24191.94;5013852;28;20200;-70
2023/03/09 07:53:49;;;;;;;4.47;2.78;;;;;;;13.40;nan;-24190.97;5013365;28;20172;-70
2023/03/09 07:56:15;;;;;;;4.60;3.00;;;;;;;13.75;nan;-24200.66;5012936;28;20230;-69
2023/03/09 07:58:41;;;;;;;3.60;2.45;;;;;;;14.40;nan;-24218.91;5013178;28;20607;-70
2023/03/09 08:01:12;;;;;;;4.75;3.00;;;;;;;14.70;nan;-24227.19;5012640;28;20275;-70
2023/03/09 08:03:37;;;;;;;3.85;2.53;;;;;;;14.95;nan;-24234.03;5012631;28;20578;-70
2023/03/09 08:06:05;;;;;;;4.97;2.50;;;;;;;14.78;nan;-24229.41;5012942;28;20176;-70
2023/03/09 08:08:32;;;;;;;4.05;2.80;;;;;;;15.48;nan;-24248.75;5013004;28;20172;-69
2023/03/09 08:10:57;;;;;;;4.30;2.47;;;;;;;15.47;nan;-24248.63;5012943;28;20203;-72
2023/03/09 08:13:23;;;;;;;4.10;2.80;;;;;;;15.75;nan;-24256.31;5013205;28;20211;-68
2023/03/09 08:15:49;;;;;;;4.20;2.60;;;;;;;15.96;nan;-24261.91;5011258;28;20192;-70
2023/03/09 08:18:14;;;;;;;2.92;2.20;;;;;;;16.11;nan;-24266.09;5011468;28;20700;-70
2023/03/09 08:20:40;;;;;;;2.85;2.38;;;;;;;15.94;nan;-24261.50;5013049;28;20183;-69
2023/03/09 08:23:06;;;;;;;4.00;2.45;;;;;;;16.27;nan;-24270.72;5013078;28;20679;-69
2023/03/09 08:25:32;;;;;;;4.10;2.85;;;;;;;15.86;nan;-24259.25;5012818;28;20207;-69
2023/03/09 08:27:59;;;;;;;3.80;2.60;;;;;;;16.27;nan;-24270.59;5012646;28;20306;-70
2023/03/09 08:30:24;;;;;;;5.47;2.45;;;;;;;16.54;nan;-24278.00;5011179;28;20628;-67
2023/03/09 08:32:52;;;;;;;2.65;2.20;;;;;;;16.86;nan;-24286.78;5012922;28;20234;-69
2023/03/09 08:35:20;;;;;;;3.28;2.40;;;;;;;16.83;nan;-24285.97;5012547;28;20172;-69
2023/03/09 08:37:45;;;;;;;3.28;2.42;;;;;;;16.73;nan;-24283.44;5012189;28;20187;-71
2023/03/09 08:40:12;;;;;;;5.10;2.28;;;;;;;17.19;nan;-24296.16;5011855;28;20172;-68
2023/03/09 08:42:37;;;;;;;3.90;2.22;;;;;;;17.04;nan;-24291.81;5011636;28;20686;-70
2023/03/09 08:45:04;;;;;;;6.40;2.20;;;;;;;16.98;nan;-24290.28;5011568;28;20171;-69
2023/03/09 08:47:30;;;;;;;4.28;2.20;;;;;;;17.32;nan;-24299.63;5012343;28;20246;-70
2023/03/09 08:49:55;;;;;;;3.03;2.22;;;;;;;17.43;nan;-24302.72;5012122;28;20263;-69
2023/03/09 08:52:21;;;;;;;6.20;2.50;;;;;;;17.63;nan;-24308.28;5011838;28;20199;-69
2023/03/09 08:54:47;;;;;;;3.08;2.13;;;;;;;18.19;nan;-24323.63;5010350;28;20234;-71
2023/03/09 08:57:12;;;;;;;4.75;2.70;;;;;;;18.29;nan;-24326.41;5012177;28;20227;-69
2023/03/09 08:59:38;;;;;;;2.78;2.13;;;;;;;18.41;nan;-24329.63;5014015;28;20184;-70
2023/03/09 09:02:04;;;;;;;3.72;2.55;;;;;;;18.05;nan;-24319.72;5012184;28;20204;-69
2023/03/09 09:04:29;;;;;;;4.72;2.58;;;;;;;18.12;nan;-24321.53;5010724;28;20241;-70
2023/03/09 09:06:55;;;;;;;3.50;2.38;;;;;;;17.99;nan;-24318.06;5011951;28;20172;-70
2023/03/09 09:09:20;;;;;;;5.20;2.38;;;;;;;18.48;nan;-24331.56;5012128;28;20168;-70
2023/03/09 09:11:46;;;;;;;4.50;2.22;;;;;;;18.62;nan;-24335.34;5010710;28;20176;-69
2023/03/09 09:14:12;;;;;;;3.67;2.05;;;;;;;18.62;nan;-24335.34;5012173;28;20643;-69
2023/03/09 09:16:37;;;;;;;5.32;2.13;;;;;;;18.59;nan;-24334.50;5011864;28;20180;-69
2023/03/09 09:19:03;;;;;;;3.65;2.00;;;;;;;18.68;nan;-24337.00;5012704;28;20168;-69
2023/03/09 09:21:28;;;;;;;3.20;2.15;;;;;;;19.09;nan;-24348.44;5011700;28;20718;-68
2023/03/09 09:23:54;;;;;;;2.85;2.35;;;;;;;19.22;nan;-24352.03;5011845;28;20211;-69
2023/03/09 09:26:20;;;;;;;3.42;2.28;;;;;;;18.85;nan;-24341.75;5011732;28;20176;-70
2023/03/09 09:28:46;;;;;;;3.35;2.20;;;;;;;19.52;nan;-24360.25;5010989;28;20259;-70
2023/03/09 09:31:16;;;;;;;2.83;2.25;;;;;;;19.68;nan;-24364.56;5012879;28;20187;-70
2023/03/09 09:33:42;;;;;;;4.65;2.30;;;;;;;19.37;nan;-24356.22;5012137;28;20258;-70
2023/03/09 09:36:12;;;;;;;3.05;2.35;;;;;;;19.59;nan;-24362.06;5013206;28;20211;-70
2023/03/09 09:38:39;;;;;;;3.33;2.30;;;;;;;20.00;nan;-24373.31;5013400;28;20292;-70
2023/03/09 09:41:12;;;;;;;4.75;2.22;;;;;;;20.03;nan;-24374.28;5013118;28;20193;-69
2023/03/09 09:43:39;;;;;;;3.00;2.00;;;;;;;20.23;nan;-24379.72;5011576;28;20199;-69
2023/03/09 09:46:09;;;;;;;3.35;2.05;;;;;;;20.29;nan;-24381.50;5011259;28;20172;-72
2023/03/09 09:48:36;;;;;;;4.15;2.17;;;;;;;19.77;nan;-24367.06;5010627;28;20218;-69
2023/03/09 09:51:40;;;;;;;3.42;2.20;;;;;;;19.59;nan;-24362.19;5011862;28;20234;-69
2023/03/09 09:54:27;;;;;;;2.50;2.00;;;;;;;19.94;nan;-24371.78;5011914;28;20263;-67
2023/03/09 09:57:00;;;;;;;2.83;2.10;;;;;;;19.99;nan;-24373.19;5004193;28;20266;-71
2023/03/09 09:59:38;;;;;;;4.65;2.40;;;;;;;20.06;nan;-24375.13;5010505;28;20207;-70
2023/03/09 10:02:09;;;;;;;3.38;2.20;;;;;;;20.53;nan;-24387.91;5012857;28;22124;-68
2023/03/09 10:04:43;;;;;;;3.65;1.98;;;;;;;19.91;nan;-24370.81;5011372;28;20535;-70
2023/03/09 10:07:20;;;;;;;3.92;2.13;;;;;;;20.01;nan;-24373.59;5011544;28;20203;-67
2023/03/09 10:09:54;;;;;;;3.35;2.20;;;;;;;20.31;nan;-24381.94;5011586;28;20200;-71
2023/03/09 10:12:20;;;;;;;3.67;2.22;;;;;;;20.44;nan;-24385.41;5010306;28;20202;-66
2023/03/09 10:15:06;;;;;;;5.75;2.20;;;;;;;20.53;nan;-24388.03;5010497;28;20180;-68
2023/03/09 10:17:38;;;;;;;4.15;2.20;;;;;;;20.90;nan;-24398.16;5010807;28;20259;-69
2023/03/09 10:20:14;;;;;;;4.35;2.22;;;;;;;20.40;nan;-24384.28;5042597;28;20184;-68
2023/03/09 10:22:41;;;;;;;2.60;2.25;;;;;;;20.66;nan;-24391.50;5010723;28;20192;-68
2023/03/09 10:25:15;;;;;;;5.88;2.17;;;;;;;20.34;nan;-24382.63;5011026;28;20184;-70
2023/03/09 10:27:49;;;;;;;2.95;2.10;;;;;;;20.13;nan;-24376.94;5010786;28;20179;-68
2023/03/09 10:30:46;;;;;;;3.20;2.03;;;;;;;20.95;nan;-24399.56;5010780;28;20263;-69
2023/03/09 10:33:26;;;;;;;2.92;2.35;;;;;;;21.06;nan;-24402.59;5042139;28;20614;-68
2023/03/09 10:36:08;;;;;;;3.55;2.03;;;;;;;21.38;nan;-24411.22;5010819;28;20210;-66
2023/03/09 10:38:38;;;;;;;3.85;2.15;;;;;;;21.07;nan;-24402.75;5011642;28;20298;-68
2023/03/09 10:41:06;;;;;;;1.98;1.70;;;;;;;20.46;nan;-24385.97;5013930;28;20572;-68
2023/03/09 10:43:34;;;;;;;3.70;1.98;;;;;;;21.05;nan;-24402.34;5014055;28;20230;-70
2023/03/09 10:46:22;;;;;;;4.32;2.47;;;;;;;20.78;nan;-24394.84;5046610;28;20237;-67
2023/03/09 10:49:07;;;;;;;3.00;2.20;;;;;;;20.92;nan;-24398.59;5014271;28;20206;-69
2023/03/09 10:51:40;;;;;;;2.58;1.90;;;;;;;21.04;nan;-24402.06;5014516;28;20611;-67
2023/03/09 10:54:17;;;;;;;3.10;2.00;;;;;;;21.13;nan;-24404.41;5014219;28;20190;-68
2023/03/09 10:56:46;;;;;;;2.75;1.73;;;;;;;21.14;nan;-24404.69;5014150;28;20223;-68
2023/03/09 10:59:13;;;;;;;2.80;1.73;;;;;;;20.96;nan;-24399.84;5013733;28;20670;-70
2023/03/09 11:01:43;;;;;;;2.08;1.73;;;;;;;21.16;nan;-24405.25;5014064;28;20244;-71
2023/03/09 11:04:21;;;;;;;2.38;1.60;;;;;;;21.28;nan;-24408.44;5014286;28;20756;-69
2023/03/09 11:07:08;;;;;;;2.45;1.80;;;;;;;21.37;nan;-24410.94;5015238;28;20274;-69
2023/03/09 11:09:43;;;;;;;4.13;1.90;;;;;;;21.32;nan;-24409.53;5014032;28;20260;-68
2023/03/09 11:12:25;;;;;;;2.25;1.60;;;;;;;20.98;nan;-24400.25;5014013;28;20168;-68
2023/03/09 11:14:53;;;;;;;2.95;1.75;;;;;;;21.03;nan;-24401.78;5013776;28;20270;-67
2023/03/09 11:17:37;;;;;;;3.85;2.00;;;;;;;21.01;nan;-24401.22;5013393;28;20172;-68
2023/03/09 11:20:18;;;;;;;2.72;1.80;;;;;;;20.96;nan;-24399.84;5013822;28;20643;-70
2023/03/09 11:23:16;;;;;;;3.00;1.70;;;;;;;20.72;nan;-24393.19;5012926;28;20648;-68
2023/03/09 11:26:03;;;;;;;3.40;1.92;;;;;;;20.61;nan;-24390.13;5013267;28;20204;-68
2023/03/09 11:28:56;;;;;;;3.10;2.08;;;;;;;20.36;nan;-24383.31;5013029;28;20557;-70
2023/03/09 11:31:33;;;;;;;4.78;2.50;;;;;;;20.25;nan;-24380.41;5013437;28;20172;-67
2023/03/09 11:33:58;;;;;;;2.20;1.70;;;;;;;19.36;nan;-24355.94;5012924;28;20519;-68
2023/03/09 11:36:46;;;;;;;2.95;2.10;;;;;;;19.22;nan;-24352.03;5012683;28;20758;-67
2023/03/09 11:39:27;;;;;;;6.07;2.22;;;;;;;19.58;nan;-24361.91;5045393;28;20238;-68
2023/03/09 11:41:54;;;;;;;3.03;2.20;;;;;;;19.46;nan;-24358.44;5013277;28;20177;-70
2023/03/09 11:44:23;;;;;;;8.18;2.22;;;;;;;19.60;nan;-24362.34;5012992;28;20238;-68
2023/03/09 11:46:52;;;;;;;4.00;2.13;;;;;;;19.72;nan;-24365.69;5013025;28;20172;-69
2023/03/09 11:49:23;;;;;;;5.07;2.30;;;;;;;20.10;nan;-24376.25;5013521;28;20261;-66
2023/03/09 11:51:51;;;;;;;3.33;2.20;;;;;;;19.96;nan;-24372.22;5013115;28;20247;-70